sensor_id;sensor_type;location;lat;lon;timestamp;P1;durP1;ratioP1;P2;durP2;ratioP2
58260;SDS011;44058;52.898;6.502;2022-10-22T00:00:22;8.38;;;7.57;;
58260;SDS011;44058;52.898;6.502;2022-10-22T00:02:48;7.75;;;7.10;;
58260;SDS011;44058;52.898;6.502;2022-10-22T00:05:14;9.05;;;6.43;;
58260;SDS011;44058;52.898;6.502;2022-10-22T00:07:40;7.90;;;6.32;;
58260;SDS011;44058;52.898;6.502;2022-10-22T00:10:06;10.43;;;7.50;;
58260;SDS011;44058;52.898;6.502;2022-10-22T00:12:32;8.35;;;6.40;;
58260;SDS011;44058;52.898;6.502;2022-10-22T00:14:58;10.95;;;6.90;;
58260;SDS011;44058;52.898;6.502;2022-10-22T00:17:24;7.50;;;6.70;;
58260;SDS011;44058;52.898;6.502;2022-10-22T00:19:50;8.65;;;6.70;;
58260;SDS011;44058;52.898;6.502;2022-10-22T00:22:15;11.43;;;6.90;;
58260;SDS011;44058;52.898;6.502;2022-10-22T00:24:41;8.82;;;7.13;;
58260;SDS011;44058;52.898;6.502;2022-10-22T00:27:08;7.22;;;6.53;;
58260;SDS011;44058;52.898;6.502;2022-10-22T00:29:35;9.93;;;8.40;;
58260;SDS011;44058;52.898;6.502;2022-10-22T00:32:00;9.10;;;8.20;;
58260;SDS011;44058;52.898;6.502;2022-10-22T00:34:27;10.55;;;7.70;;
58260;SDS011;44058;52.898;6.502;2022-10-22T00:36:53;9.65;;;7.07;;
58260;SDS011;44058;52.898;6.502;2022-10-22T00:39:20;8.40;;;7.60;;
58260;SDS011;44058;52.898;6.502;2022-10-22T00:41:48;11.43;;;9.02;;
58260;SDS011;44058;52.898;6.502;2022-10-22T00:47:18;9.48;;;8.02;;
58260;SDS011;44058;52.898;6.502;2022-10-22T00:49:45;11.68;;;8.15;;
58260;SDS011;44058;52.898;6.502;2022-10-22T00:52:12;8.73;;;7.57;;
58260;SDS011;44058;52.898;6.502;2022-10-22T00:54:38;10.02;;;8.25;;
58260;SDS011;44058;52.898;6.502;2022-10-22T00:57:05;9.45;;;7.60;;
58260;SDS011;44058;52.898;6.502;2022-10-22T00:59:31;10.90;;;8.23;;
58260;SDS011;44058;52.898;6.502;2022-10-22T01:01:57;10.05;;;7.90;;
58260;SDS011;44058;52.898;6.502;2022-10-22T01:04:23;9.52;;;7.97;;
58260;SDS011;44058;52.898;6.502;2022-10-22T01:06:49;10.00;;;7.90;;
58260;SDS011;44058;52.898;6.502;2022-10-22T01:12:02;9.70;;;7.65;;
58260;SDS011;44058;52.898;6.502;2022-10-22T01:14:58;10.57;;;9.35;;
58260;SDS011;44058;52.898;6.502;2022-10-22T01:26:36;9.18;;;8.32;;
58260;SDS011;44058;52.898;6.502;2022-10-22T01:31:58;12.32;;;8.80;;
58260;SDS011;44058;52.898;6.502;2022-10-22T01:34:28;8.68;;;7.65;;
58260;SDS011;44058;52.898;6.502;2022-10-22T01:36:56;12.32;;;9.10;;
58260;SDS011;44058;52.898;6.502;2022-10-22T01:39:24;11.50;;;8.60;;
58260;SDS011;44058;52.898;6.502;2022-10-22T01:41:54;11.82;;;8.63;;
58260;SDS011;44058;52.898;6.502;2022-10-22T01:44:27;9.60;;;8.45;;
58260;SDS011;44058;52.898;6.502;2022-10-22T02:01:17;10.07;;;9.10;;
58260;SDS011;44058;52.898;6.502;2022-10-22T02:06:44;11.95;;;9.50;;
58260;SDS011;44058;52.898;6.502;2022-10-22T02:09:12;12.15;;;9.80;;
58260;SDS011;44058;52.898;6.502;2022-10-22T02:11:41;11.45;;;9.57;;
58260;SDS011;44058;52.898;6.502;2022-10-22T02:14:08;14.25;;;8.90;;
58260;SDS011;44058;52.898;6.502;2022-10-22T02:16:37;10.63;;;9.13;;
58260;SDS011;44058;52.898;6.502;2022-10-22T02:22:03;10.68;;;9.30;;
58260;SDS011;44058;52.898;6.502;2022-10-22T02:24:29;13.23;;;10.57;;
58260;SDS011;44058;52.898;6.502;2022-10-22T02:30:00;12.95;;;10.20;;
58260;SDS011;44058;52.898;6.502;2022-10-22T02:32:30;13.88;;;9.98;;
58260;SDS011;44058;52.898;6.502;2022-10-22T02:34:59;10.85;;;9.05;;
58260;SDS011;44058;52.898;6.502;2022-10-22T02:37:27;11.87;;;10.60;;
58260;SDS011;44058;52.898;6.502;2022-10-22T02:39:54;14.70;;;9.88;;
58260;SDS011;44058;52.898;6.502;2022-10-22T02:42:21;13.10;;;10.18;;
58260;SDS011;44058;52.898;6.502;2022-10-22T02:44:48;12.50;;;9.87;;
58260;SDS011;44058;52.898;6.502;2022-10-22T02:47:14;14.63;;;9.93;;
58260;SDS011;44058;52.898;6.502;2022-10-22T02:49:39;14.70;;;9.65;;
58260;SDS011;44058;52.898;6.502;2022-10-22T02:52:05;13.25;;;10.05;;
58260;SDS011;44058;52.898;6.502;2022-10-22T02:54:30;12.18;;;10.88;;
58260;SDS011;44058;52.898;6.502;2022-10-22T02:56:56;11.35;;;9.20;;
58260;SDS011;44058;52.898;6.502;2022-10-22T02:59:22;11.55;;;9.93;;
58260;SDS011;44058;52.898;6.502;2022-10-22T03:01:47;13.98;;;10.35;;
58260;SDS011;44058;52.898;6.502;2022-10-22T03:04:13;12.00;;;10.40;;
58260;SDS011;44058;52.898;6.502;2022-10-22T03:06:39;11.32;;;9.98;;
58260;SDS011;44058;52.898;6.502;2022-10-22T03:09:08;14.60;;;11.40;;
58260;SDS011;44058;52.898;6.502;2022-10-22T03:11:34;14.18;;;10.65;;
58260;SDS011;44058;52.898;6.502;2022-10-22T03:13:59;14.30;;;11.55;;
58260;SDS011;44058;52.898;6.502;2022-10-22T03:16:25;18.27;;;10.32;;
58260;SDS011;44058;52.898;6.502;2022-10-22T03:18:51;11.13;;;10.00;;
58260;SDS011;44058;52.898;6.502;2022-10-22T03:24:04;12.75;;;10.32;;
58260;SDS011;44058;52.898;6.502;2022-10-22T03:26:52;12.05;;;10.15;;
58260;SDS011;44058;52.898;6.502;2022-10-22T03:29:19;14.30;;;9.52;;
58260;SDS011;44058;52.898;6.502;2022-10-22T03:31:47;12.27;;;9.88;;
58260;SDS011;44058;52.898;6.502;2022-10-22T03:34:13;12.80;;;10.95;;
58260;SDS011;44058;52.898;6.502;2022-10-22T03:36:39;14.65;;;10.48;;
58260;SDS011;44058;52.898;6.502;2022-10-22T03:39:06;14.73;;;10.82;;
58260;SDS011;44058;52.898;6.502;2022-10-22T03:41:33;14.85;;;11.18;;
58260;SDS011;44058;52.898;6.502;2022-10-22T03:43:59;13.13;;;11.20;;
58260;SDS011;44058;52.898;6.502;2022-10-22T03:46:26;12.18;;;10.85;;
58260;SDS011;44058;52.898;6.502;2022-10-22T03:48:52;13.50;;;10.50;;
58260;SDS011;44058;52.898;6.502;2022-10-22T03:51:18;14.57;;;11.18;;
58260;SDS011;44058;52.898;6.502;2022-10-22T03:53:43;11.93;;;10.68;;
58260;SDS011;44058;52.898;6.502;2022-10-22T03:56:09;15.77;;;11.73;;
58260;SDS011;44058;52.898;6.502;2022-10-22T03:58:36;13.25;;;11.95;;
58260;SDS011;44058;52.898;6.502;2022-10-22T04:01:12;15.43;;;11.88;;
58260;SDS011;44058;52.898;6.502;2022-10-22T04:03:38;16.10;;;12.20;;
58260;SDS011;44058;52.898;6.502;2022-10-22T04:06:08;13.63;;;12.38;;
58260;SDS011;44058;52.898;6.502;2022-10-22T04:08:39;14.45;;;11.27;;
58260;SDS011;44058;52.898;6.502;2022-10-22T04:11:06;13.77;;;12.32;;
58260;SDS011;44058;52.898;6.502;2022-10-22T04:13:32;16.95;;;12.43;;
58260;SDS011;44058;52.898;6.502;2022-10-22T04:16:14;13.90;;;12.43;;
58260;SDS011;44058;52.898;6.502;2022-10-22T04:18:42;20.38;;;13.10;;
58260;SDS011;44058;52.898;6.502;2022-10-22T04:21:09;14.35;;;12.75;;
58260;SDS011;44058;52.898;6.502;2022-10-22T04:23:36;13.48;;;12.05;;
58260;SDS011;44058;52.898;6.502;2022-10-22T04:26:04;17.60;;;12.85;;
58260;SDS011;44058;52.898;6.502;2022-10-22T04:28:31;13.73;;;12.25;;
58260;SDS011;44058;52.898;6.502;2022-10-22T04:30:58;14.40;;;12.82;;
58260;SDS011;44058;52.898;6.502;2022-10-22T04:33:23;16.80;;;12.27;;
58260;SDS011;44058;52.898;6.502;2022-10-22T04:35:50;14.35;;;12.73;;
58260;SDS011;44058;52.898;6.502;2022-10-22T04:38:16;14.48;;;12.57;;
58260;SDS011;44058;52.898;6.502;2022-10-22T04:40:42;15.38;;;12.55;;
58260;SDS011;44058;52.898;6.502;2022-10-22T04:43:08;14.25;;;11.60;;
58260;SDS011;44058;52.898;6.502;2022-10-22T04:45:34;13.55;;;11.27;;
58260;SDS011;44058;52.898;6.502;2022-10-22T04:48:00;16.10;;;11.70;;
58260;SDS011;44058;52.898;6.502;2022-10-22T04:50:26;13.90;;;12.15;;
58260;SDS011;44058;52.898;6.502;2022-10-22T04:52:52;13.15;;;11.80;;
58260;SDS011;44058;52.898;6.502;2022-10-22T04:55:17;16.02;;;12.18;;
58260;SDS011;44058;52.898;6.502;2022-10-22T04:57:43;15.00;;;13.35;;
58260;SDS011;44058;52.898;6.502;2022-10-22T05:00:09;13.20;;;11.93;;
58260;SDS011;44058;52.898;6.502;2022-10-22T05:02:35;14.32;;;12.25;;
58260;SDS011;44058;52.898;6.502;2022-10-22T05:05:01;13.18;;;11.75;;
58260;SDS011;44058;52.898;6.502;2022-10-22T05:07:27;13.70;;;11.65;;
58260;SDS011;44058;52.898;6.502;2022-10-22T05:09:53;13.88;;;11.10;;
58260;SDS011;44058;52.898;6.502;2022-10-22T05:12:18;12.98;;;11.38;;
58260;SDS011;44058;52.898;6.502;2022-10-22T05:14:44;13.15;;;11.75;;
58260;SDS011;44058;52.898;6.502;2022-10-22T05:17:10;14.63;;;11.60;;
58260;SDS011;44058;52.898;6.502;2022-10-22T05:19:36;14.20;;;11.50;;
58260;SDS011;44058;52.898;6.502;2022-10-22T05:22:02;14.15;;;12.55;;
58260;SDS011;44058;52.898;6.502;2022-10-22T05:24:29;14.02;;;11.23;;
58260;SDS011;44058;52.898;6.502;2022-10-22T05:26:56;15.38;;;13.02;;
58260;SDS011;44058;52.898;6.502;2022-10-22T05:29:23;13.40;;;11.25;;
58260;SDS011;44058;52.898;6.502;2022-10-22T05:31:50;14.05;;;10.65;;
58260;SDS011;44058;52.898;6.502;2022-10-22T05:34:16;14.10;;;11.48;;
58260;SDS011;44058;52.898;6.502;2022-10-22T05:36:42;14.27;;;11.27;;
58260;SDS011;44058;52.898;6.502;2022-10-22T05:39:07;13.45;;;10.45;;
58260;SDS011;44058;52.898;6.502;2022-10-22T05:41:34;13.48;;;10.98;;
58260;SDS011;44058;52.898;6.502;2022-10-22T05:44:00;16.35;;;11.57;;
58260;SDS011;44058;52.898;6.502;2022-10-22T05:46:27;13.88;;;11.68;;
58260;SDS011;44058;52.898;6.502;2022-10-22T05:48:58;14.85;;;11.43;;
58260;SDS011;44058;52.898;6.502;2022-10-22T05:51:25;14.70;;;11.32;;
58260;SDS011;44058;52.898;6.502;2022-10-22T05:53:53;13.75;;;10.65;;
58260;SDS011;44058;52.898;6.502;2022-10-22T05:56:21;13.98;;;11.05;;
58260;SDS011;44058;52.898;6.502;2022-10-22T05:58:48;11.98;;;10.70;;
58260;SDS011;44058;52.898;6.502;2022-10-22T06:01:15;12.13;;;10.65;;
58260;SDS011;44058;52.898;6.502;2022-10-22T06:03:43;11.75;;;10.32;;
58260;SDS011;44058;52.898;6.502;2022-10-22T06:06:19;13.20;;;11.07;;
58260;SDS011;44058;52.898;6.502;2022-10-22T06:08:46;15.60;;;11.07;;
58260;SDS011;44058;52.898;6.502;2022-10-22T06:11:13;14.05;;;10.93;;
58260;SDS011;44058;52.898;6.502;2022-10-22T06:13:39;13.45;;;9.77;;
58260;SDS011;44058;52.898;6.502;2022-10-22T06:16:05;11.40;;;10.15;;
58260;SDS011;44058;52.898;6.502;2022-10-22T06:18:31;14.18;;;10.70;;
58260;SDS011;44058;52.898;6.502;2022-10-22T06:21:02;11.98;;;9.20;;
58260;SDS011;44058;52.898;6.502;2022-10-22T06:23:29;16.48;;;10.35;;
58260;SDS011;44058;52.898;6.502;2022-10-22T06:25:55;11.75;;;9.65;;
58260;SDS011;44058;52.898;6.502;2022-10-22T06:28:21;11.43;;;9.88;;
58260;SDS011;44058;52.898;6.502;2022-10-22T06:30:47;12.95;;;9.68;;
58260;SDS011;44058;52.898;6.502;2022-10-22T06:33:12;13.65;;;9.52;;
58260;SDS011;44058;52.898;6.502;2022-10-22T06:35:38;12.88;;;9.52;;
58260;SDS011;44058;52.898;6.502;2022-10-22T06:38:04;11.88;;;8.90;;
58260;SDS011;44058;52.898;6.502;2022-10-22T06:40:31;11.85;;;9.18;;
58260;SDS011;44058;52.898;6.502;2022-10-22T06:42:58;11.13;;;8.63;;
58260;SDS011;44058;52.898;6.502;2022-10-22T06:45:24;11.50;;;9.05;;
58260;SDS011;44058;52.898;6.502;2022-10-22T06:47:50;14.57;;;9.30;;
58260;SDS011;44058;52.898;6.502;2022-10-22T06:50:16;12.15;;;8.88;;
58260;SDS011;44058;52.898;6.502;2022-10-22T06:52:41;10.80;;;8.43;;
58260;SDS011;44058;52.898;6.502;2022-10-22T06:55:07;12.48;;;8.73;;
58260;SDS011;44058;52.898;6.502;2022-10-22T06:57:33;10.15;;;8.77;;
58260;SDS011;44058;52.898;6.502;2022-10-22T06:59:59;10.25;;;8.73;;
58260;SDS011;44058;52.898;6.502;2022-10-22T07:02:25;12.77;;;8.48;;
58260;SDS011;44058;52.898;6.502;2022-10-22T07:04:50;9.90;;;8.02;;
58260;SDS011;44058;52.898;6.502;2022-10-22T07:07:16;14.15;;;8.80;;
58260;SDS011;44058;52.898;6.502;2022-10-22T07:09:42;11.07;;;8.55;;
58260;SDS011;44058;52.898;6.502;2022-10-22T07:12:10;14.73;;;8.05;;
58260;SDS011;44058;52.898;6.502;2022-10-22T07:14:36;10.63;;;8.25;;
58260;SDS011;44058;52.898;6.502;2022-10-22T07:17:02;11.68;;;8.45;;
58260;SDS011;44058;52.898;6.502;2022-10-22T07:19:28;9.18;;;7.60;;
58260;SDS011;44058;52.898;6.502;2022-10-22T07:21:53;10.38;;;7.50;;
58260;SDS011;44058;52.898;6.502;2022-10-22T07:24:19;10.52;;;7.18;;
58260;SDS011;44058;52.898;6.502;2022-10-22T07:26:45;11.80;;;7.55;;
58260;SDS011;44058;52.898;6.502;2022-10-22T07:29:10;12.23;;;7.05;;
58260;SDS011;44058;52.898;6.502;2022-10-22T07:31:36;10.88;;;7.00;;
58260;SDS011;44058;52.898;6.502;2022-10-22T07:34:02;10.43;;;6.45;;
58260;SDS011;44058;52.898;6.502;2022-10-22T07:36:27;10.90;;;6.47;;
58260;SDS011;44058;52.898;6.502;2022-10-22T07:38:54;9.52;;;6.90;;
58260;SDS011;44058;52.898;6.502;2022-10-22T07:41:21;11.02;;;7.43;;
58260;SDS011;44058;52.898;6.502;2022-10-22T07:43:48;10.07;;;7.00;;
58260;SDS011;44058;52.898;6.502;2022-10-22T07:46:14;13.05;;;6.90;;
58260;SDS011;44058;52.898;6.502;2022-10-22T07:48:40;7.70;;;6.50;;
58260;SDS011;44058;52.898;6.502;2022-10-22T07:51:05;11.93;;;7.57;;
58260;SDS011;44058;52.898;6.502;2022-10-22T07:53:31;8.80;;;6.78;;
58260;SDS011;44058;52.898;6.502;2022-10-22T07:55:58;11.23;;;7.30;;
58260;SDS011;44058;52.898;6.502;2022-10-22T07:58:23;13.02;;;7.05;;
58260;SDS011;44058;52.898;6.502;2022-10-22T08:00:50;16.60;;;6.95;;
58260;SDS011;44058;52.898;6.502;2022-10-22T08:03:18;11.27;;;7.07;;
58260;SDS011;44058;52.898;6.502;2022-10-22T08:05:44;9.23;;;6.28;;
58260;SDS011;44058;52.898;6.502;2022-10-22T08:08:10;11.10;;;6.40;;
58260;SDS011;44058;52.898;6.502;2022-10-22T08:10:38;9.40;;;6.35;;
58260;SDS011;44058;52.898;6.502;2022-10-22T08:13:06;12.07;;;6.40;;
58260;SDS011;44058;52.898;6.502;2022-10-22T08:15:32;11.07;;;6.22;;
58260;SDS011;44058;52.898;6.502;2022-10-22T08:17:58;11.80;;;6.15;;
58260;SDS011;44058;52.898;6.502;2022-10-22T08:20:24;9.52;;;5.28;;
58260;SDS011;44058;52.898;6.502;2022-10-22T08:22:50;8.93;;;5.70;;
58260;SDS011;44058;52.898;6.502;2022-10-22T08:25:16;10.18;;;5.10;;
58260;SDS011;44058;52.898;6.502;2022-10-22T08:27:42;11.13;;;5.28;;
58260;SDS011;44058;52.898;6.502;2022-10-22T08:30:09;10.32;;;5.65;;
58260;SDS011;44058;52.898;6.502;2022-10-22T08:32:35;9.45;;;5.07;;
58260;SDS011;44058;52.898;6.502;2022-10-22T08:35:01;9.57;;;4.75;;
58260;SDS011;44058;52.898;6.502;2022-10-22T08:37:27;12.40;;;5.53;;
58260;SDS011;44058;52.898;6.502;2022-10-22T08:39:52;8.38;;;5.10;;
58260;SDS011;44058;52.898;6.502;2022-10-22T08:42:58;11.85;;;5.05;;
58260;SDS011;44058;52.898;6.502;2022-10-22T08:45:38;9.20;;;5.20;;
58260;SDS011;44058;52.898;6.502;2022-10-22T08:48:35;7.75;;;4.85;;
58260;SDS011;44058;52.898;6.502;2022-10-22T08:51:02;9.95;;;4.90;;
58260;SDS011;44058;52.898;6.502;2022-10-22T08:53:31;9.65;;;4.53;;
58260;SDS011;44058;52.898;6.502;2022-10-22T08:56:05;10.15;;;4.60;;
58260;SDS011;44058;52.898;6.502;2022-10-22T08:58:39;8.73;;;4.53;;
58260;SDS011;44058;52.898;6.502;2022-10-22T09:01:12;10.65;;;4.35;;
58260;SDS011;44058;52.898;6.502;2022-10-22T09:06:11;9.70;;;4.88;;
58260;SDS011;44058;52.898;6.502;2022-10-22T09:08:38;11.93;;;5.13;;
58260;SDS011;44058;52.898;6.502;2022-10-22T09:13:41;8.70;;;3.90;;
58260;SDS011;44058;52.898;6.502;2022-10-22T09:16:27;11.25;;;4.45;;
58260;SDS011;44058;52.898;6.502;2022-10-22T09:22:01;6.35;;;4.15;;
58260;SDS011;44058;52.898;6.502;2022-10-22T09:24:48;12.13;;;4.23;;
58260;SDS011;44058;52.898;6.502;2022-10-22T09:27:25;9.88;;;3.97;;
58260;SDS011;44058;52.898;6.502;2022-10-22T09:29:52;9.70;;;4.32;;
58260;SDS011;44058;52.898;6.502;2022-10-22T09:32:18;9.93;;;3.67;;
58260;SDS011;44058;52.898;6.502;2022-10-22T09:34:45;10.43;;;4.18;;
58260;SDS011;44058;52.898;6.502;2022-10-22T09:37:11;11.30;;;3.88;;
58260;SDS011;44058;52.898;6.502;2022-10-22T09:39:46;11.60;;;4.03;;
58260;SDS011;44058;52.898;6.502;2022-10-22T09:42:16;7.32;;;3.55;;
58260;SDS011;44058;52.898;6.502;2022-10-22T09:44:43;11.95;;;4.45;;
58260;SDS011;44058;52.898;6.502;2022-10-22T09:47:32;10.00;;;4.00;;
58260;SDS011;44058;52.898;6.502;2022-10-22T09:53:00;11.43;;;4.47;;
58260;SDS011;44058;52.898;6.502;2022-10-22T09:55:36;7.43;;;3.90;;
58260;SDS011;44058;52.898;6.502;2022-10-22T09:58:03;9.70;;;4.18;;
58260;SDS011;44058;52.898;6.502;2022-10-22T10:00:29;14.60;;;4.80;;
58260;SDS011;44058;52.898;6.502;2022-10-22T10:02:55;10.13;;;4.57;;
58260;SDS011;44058;52.898;6.502;2022-10-22T10:05:27;10.60;;;4.13;;
58260;SDS011;44058;52.898;6.502;2022-10-22T10:07:55;10.82;;;4.40;;
58260;SDS011;44058;52.898;6.502;2022-10-22T10:10:36;12.07;;;4.47;;
58260;SDS011;44058;52.898;6.502;2022-10-22T10:15:48;11.40;;;5.18;;
58260;SDS011;44058;52.898;6.502;2022-10-22T10:24:07;11.60;;;5.07;;
58260;SDS011;44058;52.898;6.502;2022-10-22T10:26:52;10.95;;;5.53;;
58260;SDS011;44058;52.898;6.502;2022-10-22T10:37:55;12.18;;;4.70;;
58260;SDS011;44058;52.898;6.502;2022-10-22T10:40:31;8.43;;;4.70;;
58260;SDS011;44058;52.898;6.502;2022-10-22T10:43:31;9.20;;;5.05;;
58260;SDS011;44058;52.898;6.502;2022-10-22T10:49:08;9.20;;;5.07;;
58260;SDS011;44058;52.898;6.502;2022-10-22T10:54:57;9.48;;;5.43;;
58260;SDS011;44058;52.898;6.502;2022-10-22T10:57:38;12.82;;;5.28;;
58260;SDS011;44058;52.898;6.502;2022-10-22T11:00:17;12.10;;;5.70;;
58260;SDS011;44058;52.898;6.502;2022-10-22T11:07:56;11.50;;;6.70;;
58260;SDS011;44058;52.898;6.502;2022-10-22T11:10:29;10.75;;;6.55;;
58260;SDS011;44058;52.898;6.502;2022-10-22T11:13:48;11.38;;;6.65;;
58260;SDS011;44058;52.898;6.502;2022-10-22T11:18:45;10.20;;;6.57;;
58260;SDS011;44058;52.898;6.502;2022-10-22T11:24:22;10.00;;;7.10;;
58260;SDS011;44058;52.898;6.502;2022-10-22T11:26:57;10.45;;;6.97;;
58260;SDS011;44058;52.898;6.502;2022-10-22T11:29:30;10.60;;;6.20;;
58260;SDS011;44058;52.898;6.502;2022-10-22T11:32:03;9.48;;;6.43;;
58260;SDS011;44058;52.898;6.502;2022-10-22T11:34:39;11.57;;;6.32;;
58260;SDS011;44058;52.898;6.502;2022-10-22T11:37:09;10.05;;;6.30;;
58260;SDS011;44058;52.898;6.502;2022-10-22T11:39:42;11.07;;;6.10;;
58260;SDS011;44058;52.898;6.502;2022-10-22T11:42:20;13.00;;;6.45;;
58260;SDS011;44058;52.898;6.502;2022-10-22T11:45:00;10.00;;;5.32;;
58260;SDS011;44058;52.898;6.502;2022-10-22T12:17:14;12.88;;;6.00;;
58260;SDS011;44058;52.898;6.502;2022-10-22T12:19:42;8.70;;;5.47;;
58260;SDS011;44058;52.898;6.502;2022-10-22T12:24:49;7.63;;;5.15;;
58260;SDS011;44058;52.898;6.502;2022-10-22T12:27:19;13.98;;;5.43;;
58260;SDS011;44058;52.898;6.502;2022-10-22T12:29:46;12.65;;;5.25;;
58260;SDS011;44058;52.898;6.502;2022-10-22T12:32:13;12.02;;;4.85;;
58260;SDS011;44058;52.898;6.502;2022-10-22T12:34:46;10.07;;;4.85;;
58260;SDS011;44058;52.898;6.502;2022-10-22T12:37:14;11.82;;;5.57;;
58260;SDS011;44058;52.898;6.502;2022-10-22T12:39:41;8.50;;;5.20;;
58260;SDS011;44058;52.898;6.502;2022-10-22T12:42:09;7.93;;;5.63;;
58260;SDS011;44058;52.898;6.502;2022-10-22T12:44:38;10.77;;;5.65;;
58260;SDS011;44058;52.898;6.502;2022-10-22T12:47:04;10.65;;;6.30;;
58260;SDS011;44058;52.898;6.502;2022-10-22T12:49:35;10.57;;;5.82;;
58260;SDS011;44058;52.898;6.502;2022-10-22T12:52:06;9.40;;;5.97;;
58260;SDS011;44058;52.898;6.502;2022-10-22T12:54:37;10.13;;;6.43;;
58260;SDS011;44058;52.898;6.502;2022-10-22T12:57:04;10.13;;;6.20;;
58260;SDS011;44058;52.898;6.502;2022-10-22T12:59:35;11.43;;;6.63;;
58260;SDS011;44058;52.898;6.502;2022-10-22T13:02:19;11.03;;;5.80;;
58260;SDS011;44058;52.898;6.502;2022-10-22T13:07:45;11.82;;;4.90;;
58260;SDS011;44058;52.898;6.502;2022-10-22T13:10:19;9.85;;;5.10;;
58260;SDS011;44058;52.898;6.502;2022-10-22T13:18:02;9.43;;;3.88;;
58260;SDS011;44058;52.898;6.502;2022-10-22T13:23:17;8.52;;;3.72;;
58260;SDS011;44058;52.898;6.502;2022-10-22T13:25:54;6.13;;;2.97;;
58260;SDS011;44058;52.898;6.502;2022-10-22T13:28:37;9.05;;;3.08;;
58260;SDS011;44058;52.898;6.502;2022-10-22T13:31:13;6.85;;;2.20;;
58260;SDS011;44058;52.898;6.502;2022-10-22T13:33:42;4.38;;;1.70;;
58260;SDS011;44058;52.898;6.502;2022-10-22T13:36:13;5.45;;;1.88;;
58260;SDS011;44058;52.898;6.502;2022-10-22T13:38:40;5.18;;;1.73;;
58260;SDS011;44058;52.898;6.502;2022-10-22T13:41:20;5.68;;;1.83;;
58260;SDS011;44058;52.898;6.502;2022-10-22T13:43:47;4.53;;;1.40;;
58260;SDS011;44058;52.898;6.502;2022-10-22T13:46:13;5.28;;;1.63;;
58260;SDS011;44058;52.898;6.502;2022-10-22T13:48:39;6.97;;;1.42;;
58260;SDS011;44058;52.898;6.502;2022-10-22T13:51:13;6.78;;;1.70;;
58260;SDS011;44058;52.898;6.502;2022-10-22T13:53:41;4.82;;;1.70;;
58260;SDS011;44058;52.898;6.502;2022-10-22T13:56:13;5.20;;;1.65;;
58260;SDS011;44058;52.898;6.502;2022-10-22T13:58:40;4.90;;;1.55;;
58260;SDS011;44058;52.898;6.502;2022-10-22T14:01:10;5.47;;;1.42;;
58260;SDS011;44058;52.898;6.502;2022-10-22T14:03:45;8.82;;;1.75;;
58260;SDS011;44058;52.898;6.502;2022-10-22T14:06:12;7.72;;;2.30;;
58260;SDS011;44058;52.898;6.502;2022-10-22T14:08:39;7.90;;;1.90;;
58260;SDS011;44058;52.898;6.502;2022-10-22T14:11:08;4.85;;;1.33;;
58260;SDS011;44058;52.898;6.502;2022-10-22T14:16:00;6.93;;;1.75;;
58260;SDS011;44058;52.898;6.502;2022-10-22T14:18:29;10.00;;;2.00;;
58260;SDS011;44058;52.898;6.502;2022-10-22T14:20:58;6.93;;;2.08;;
58260;SDS011;44058;52.898;6.502;2022-10-22T14:23:26;6.47;;;1.98;;
58260;SDS011;44058;52.898;6.502;2022-10-22T14:25:53;8.18;;;1.85;;
58260;SDS011;44058;52.898;6.502;2022-10-22T14:28:20;7.18;;;1.95;;
58260;SDS011;44058;52.898;6.502;2022-10-22T14:30:46;7.40;;;2.25;;
58260;SDS011;44058;52.898;6.502;2022-10-22T14:33:13;8.43;;;2.05;;
58260;SDS011;44058;52.898;6.502;2022-10-22T14:35:42;5.28;;;1.52;;
58260;SDS011;44058;52.898;6.502;2022-10-22T14:38:08;8.60;;;2.38;;
58260;SDS011;44058;52.898;6.502;2022-10-22T14:40:34;8.52;;;2.10;;
58260;SDS011;44058;52.898;6.502;2022-10-22T14:45:29;13.65;;;2.58;;
58260;SDS011;44058;52.898;6.502;2022-10-22T14:47:54;7.78;;;2.20;;
58260;SDS011;44058;52.898;6.502;2022-10-22T14:50:20;9.55;;;3.00;;
58260;SDS011;44058;52.898;6.502;2022-10-22T14:52:47;9.98;;;2.17;;
58260;SDS011;44058;52.898;6.502;2022-10-22T14:55:14;12.73;;;3.03;;
58260;SDS011;44058;52.898;6.502;2022-10-22T14:57:41;9.57;;;2.50;;
58260;SDS011;44058;52.898;6.502;2022-10-22T15:00:08;9.18;;;2.63;;
58260;SDS011;44058;52.898;6.502;2022-10-22T15:02:36;11.05;;;3.30;;
58260;SDS011;44058;52.898;6.502;2022-10-22T15:05:02;10.98;;;2.72;;
58260;SDS011;44058;52.898;6.502;2022-10-22T15:07:28;10.45;;;2.50;;
58260;SDS011;44058;52.898;6.502;2022-10-22T15:09:54;9.45;;;2.58;;
58260;SDS011;44058;52.898;6.502;2022-10-22T15:12:20;7.47;;;2.35;;
58260;SDS011;44058;52.898;6.502;2022-10-22T15:14:46;13.68;;;3.33;;
58260;SDS011;44058;52.898;6.502;2022-10-22T15:17:12;9.52;;;2.70;;
58260;SDS011;44058;52.898;6.502;2022-10-22T15:19:38;10.65;;;2.95;;
58260;SDS011;44058;52.898;6.502;2022-10-22T15:22:04;14.45;;;3.33;;
58260;SDS011;44058;52.898;6.502;2022-10-22T15:24:31;12.88;;;4.43;;
58260;SDS011;44058;52.898;6.502;2022-10-22T15:26:57;14.60;;;3.80;;
58260;SDS011;44058;52.898;6.502;2022-10-22T15:29:22;14.23;;;4.45;;
58260;SDS011;44058;52.898;6.502;2022-10-22T15:31:49;17.10;;;4.75;;
58260;SDS011;44058;52.898;6.502;2022-10-22T15:34:17;16.60;;;5.03;;
58260;SDS011;44058;52.898;6.502;2022-10-22T15:36:47;11.95;;;3.17;;
58260;SDS011;44058;52.898;6.502;2022-10-22T15:39:13;12.00;;;2.97;;
58260;SDS011;44058;52.898;6.502;2022-10-22T15:41:39;11.07;;;3.13;;
58260;SDS011;44058;52.898;6.502;2022-10-22T15:44:05;13.05;;;3.22;;
58260;SDS011;44058;52.898;6.502;2022-10-22T15:46:31;14.55;;;3.13;;
58260;SDS011;44058;52.898;6.502;2022-10-22T15:48:57;14.02;;;3.25;;
58260;SDS011;44058;52.898;6.502;2022-10-22T15:51:23;13.73;;;3.72;;
58260;SDS011;44058;52.898;6.502;2022-10-22T15:53:50;12.48;;;3.83;;
58260;SDS011;44058;52.898;6.502;2022-10-22T15:56:21;13.45;;;3.65;;
58260;SDS011;44058;52.898;6.502;2022-10-22T15:58:51;11.32;;;4.03;;
58260;SDS011;44058;52.898;6.502;2022-10-22T16:01:18;10.98;;;3.20;;
58260;SDS011;44058;52.898;6.502;2022-10-22T16:03:44;11.55;;;3.65;;
58260;SDS011;44058;52.898;6.502;2022-10-22T16:06:09;12.02;;;3.30;;
58260;SDS011;44058;52.898;6.502;2022-10-22T16:08:35;16.40;;;3.38;;
58260;SDS011;44058;52.898;6.502;2022-10-22T16:11:02;12.95;;;3.53;;
58260;SDS011;44058;52.898;6.502;2022-10-22T16:13:28;13.18;;;3.10;;
58260;SDS011;44058;52.898;6.502;2022-10-22T16:15:53;11.27;;;3.03;;
58260;SDS011;44058;52.898;6.502;2022-10-22T16:18:19;19.13;;;4.03;;
58260;SDS011;44058;52.898;6.502;2022-10-22T16:20:45;12.38;;;3.60;;
58260;SDS011;44058;52.898;6.502;2022-10-22T16:23:11;11.85;;;3.65;;
58260;SDS011;44058;52.898;6.502;2022-10-22T16:25:41;11.65;;;3.70;;
58260;SDS011;44058;52.898;6.502;2022-10-22T16:28:08;12.27;;;4.25;;
58260;SDS011;44058;52.898;6.502;2022-10-22T16:30:35;13.75;;;3.60;;
58260;SDS011;44058;52.898;6.502;2022-10-22T16:33:03;16.90;;;4.43;;
58260;SDS011;44058;52.898;6.502;2022-10-22T16:35:30;12.50;;;4.18;;
58260;SDS011;44058;52.898;6.502;2022-10-22T16:37:56;12.15;;;4.30;;
58260;SDS011;44058;52.898;6.502;2022-10-22T16:40:22;10.85;;;3.67;;
58260;SDS011;44058;52.898;6.502;2022-10-22T16:42:48;17.27;;;4.45;;
58260;SDS011;44058;52.898;6.502;2022-10-22T16:45:14;11.57;;;4.47;;
58260;SDS011;44058;52.898;6.502;2022-10-22T16:47:40;11.80;;;4.28;;
58260;SDS011;44058;52.898;6.502;2022-10-22T16:50:09;11.15;;;4.10;;
58260;SDS011;44058;52.898;6.502;2022-10-22T16:52:35;10.40;;;3.85;;
58260;SDS011;44058;52.898;6.502;2022-10-22T16:55:00;12.60;;;4.50;;
58260;SDS011;44058;52.898;6.502;2022-10-22T16:57:27;17.10;;;6.03;;
58260;SDS011;44058;52.898;6.502;2022-10-22T16:59:53;14.70;;;6.45;;